createdAt,value
2018-11-22T00:01:55.360Z,101024.26
2018-11-22T00:04:22.960Z,101021.75
2018-11-22T00:06:50.614Z,101019.36
2018-11-22T00:09:18.209Z,101021.88
2018-11-22T00:11:45.843Z,101018.73
2018-11-22T00:14:13.474Z,101020.75
2018-11-22T00:16:44.095Z,101023.34
2018-11-22T00:19:11.949Z,101016.28
2018-11-22T00:21:39.572Z,101015.77
2018-11-22T00:24:07.212Z,101018.97
2018-11-22T00:26:35.017Z,101019.09
2018-11-22T00:29:02.622Z,101016.61
2018-11-22T00:31:30.216Z,101015.66
2018-11-22T00:33:57.819Z,101016.70
2018-11-22T00:36:25.392Z,101014.59
2018-11-22T00:38:53.001Z,101028.25
2018-11-22T00:41:20.596Z,101016.70
2018-11-22T00:43:48.214Z,101011.75
2018-11-22T00:46:15.863Z,101014.95
2018-11-22T00:48:43.478Z,101015.28
2018-11-22T00:51:11.062Z,101015.92
2018-11-22T00:53:38.702Z,101009.39
2018-11-22T00:56:06.323Z,101020.42
2018-11-22T00:58:33.974Z,101022.15
2018-11-22T01:01:01.638Z,101016.22
2018-11-22T01:03:29.393Z,101013.56
2018-11-22T01:05:57.117Z,101008.48
2018-11-22T01:08:24.802Z,101010.05
2018-11-22T01:10:52.439Z,101019.73
2018-11-22T01:13:20.105Z,101010.12
2018-11-22T01:15:47.868Z,101015.77
2018-11-22T01:18:15.559Z,101017.85
2018-11-22T01:20:43.188Z,101012.16
2018-11-22T01:23:10.823Z,101005.25
2018-11-22T01:25:38.452Z,101000.79
2018-11-22T01:28:06.048Z,101004.55
2018-11-22T01:30:33.620Z,101008.72
2018-11-22T01:33:01.162Z,101000.80
2018-11-22T01:35:28.751Z,101008.45
2018-11-22T01:37:56.325Z,101000.25
2018-11-22T01:40:24.659Z,100999.66
2018-11-22T01:42:52.282Z,101005.18
2018-11-22T01:45:21.293Z,101003.52
2018-11-22T01:47:49.255Z,101001.65
2018-11-22T01:50:17.432Z,101006.27
2018-11-22T01:52:45.166Z,101006.45
2018-11-22T01:55:14.064Z,101004.16
2018-11-22T01:57:42.242Z,101006.31
2018-11-22T02:00:15.548Z,101005.12
2018-11-22T02:02:43.162Z,101005.25
2018-11-22T02:05:12.548Z,101009.02
2018-11-22T02:07:40.207Z,101005.91
2018-11-22T02:10:10.492Z,101002.69
2018-11-22T02:12:38.212Z,101004.34
2018-11-22T02:15:08.826Z,100998.06
2018-11-22T02:17:36.366Z,100996.97
2018-11-22T02:20:10.580Z,101003.39
2018-11-22T02:22:38.335Z,100997.26
2018-11-22T02:25:07.497Z,101001.48
2018-11-22T02:27:36.107Z,100991.57
2018-11-22T02:30:11.653Z,100999.92
2018-11-22T02:32:39.599Z,101002.98
2018-11-22T02:35:08.239Z,100999.32
2018-11-22T02:37:36.065Z,100994.88
2018-11-22T02:40:04.734Z,100991.16
2018-11-22T02:42:32.543Z,100988.75
2018-11-22T02:45:00.210Z,100992.50
2018-11-22T02:47:27.825Z,100984.92
2018-11-22T02:49:55.451Z,100984.78
2018-11-22T02:52:23.071Z,100987.04
2018-11-22T02:54:50.768Z,100991.73
2018-11-22T02:57:18.345Z,100991.11
2018-11-22T02:59:45.946Z,100995.94
2018-11-22T03:02:13.494Z,100998.55
2018-11-22T03:04:41.146Z,100999.00
2018-11-22T03:07:08.960Z,100997.75
2018-11-22T03:09:36.601Z,100999.37
2018-11-22T03:12:04.890Z,100998.86
2018-11-22T03:14:32.482Z,101007.51
2018-11-22T03:17:00.012Z,100997.20
2018-11-22T03:19:27.825Z,101002.47
2018-11-22T03:21:55.414Z,101005.43
2018-11-22T03:24:23.197Z,101000.95
2018-11-22T03:26:50.798Z,101001.92
2018-11-22T03:29:18.505Z,100994.70
2018-11-22T03:31:46.100Z,100995.54
2018-11-22T03:34:13.668Z,101002.50
2018-11-22T03:36:41.316Z,100993.20
2018-11-22T03:39:09.600Z,100995.95
2018-11-22T03:41:37.363Z,100995.77
2018-11-22T03:44:05.154Z,101002.61
2018-11-22T03:46:32.862Z,101007.14
2018-11-22T03:49:00.469Z,100998.07
2018-11-22T03:51:28.091Z,100999.15
2018-11-22T03:53:56.004Z,100998.84
2018-11-22T03:56:23.714Z,100996.51
2018-11-22T03:58:54.365Z,101000.34
2018-11-22T04:01:20.377Z,100997.05
2018-11-22T04:03:47.996Z,101005.91
2018-11-22T04:06:15.615Z,100995.55
2018-11-22T04:08:43.378Z,101001.09
2018-11-22T04:11:10.953Z,100994.80
2018-11-22T04:13:38.534Z,101001.25
2018-11-22T04:16:06.254Z,101000.17
2018-11-22T04:18:33.819Z,101010.39
2018-11-22T04:21:01.428Z,101000.23
2018-11-22T04:23:29.201Z,101002.89
2018-11-22T04:25:56.868Z,101002.83
2018-11-22T04:28:24.453Z,101000.48
2018-11-22T04:30:52.143Z,100995.41
2018-11-22T04:33:19.781Z,101002.22
2018-11-22T04:35:47.451Z,100996.97
2018-11-22T04:38:15.250Z,100997.33
2018-11-22T04:40:42.980Z,101001.50
2018-11-22T04:43:10.789Z,100997.45
2018-11-22T04:45:38.417Z,101005.57
2018-11-22T04:48:06.031Z,101007.83
2018-11-22T04:50:35.360Z,101001.34
2018-11-22T04:53:03.233Z,101000.38
2018-11-22T04:55:30.966Z,101000.71
2018-11-22T04:57:58.649Z,100992.95
2018-11-22T05:00:26.806Z,100994.29
2018-11-22T05:02:54.427Z,100994.03
2018-11-22T05:05:29.964Z,100989.58
2018-11-22T05:07:57.770Z,100991.39
2018-11-22T05:10:26.576Z,100992.86
2018-11-22T05:12:54.570Z,100994.21
2018-11-22T05:15:26.889Z,100994.91
2018-11-22T05:17:54.576Z,101002.13
2018-11-22T05:20:23.069Z,100997.13
2018-11-22T05:22:51.244Z,101002.68
2018-11-22T05:25:21.516Z,101000.96
2018-11-22T05:27:49.560Z,101000.92
2018-11-22T05:30:27.982Z,100996.44
2018-11-22T05:32:55.927Z,100998.48
2018-11-22T05:35:23.758Z,100997.97
2018-11-22T05:37:51.395Z,100998.18
2018-11-22T05:40:25.351Z,100993.52
2018-11-22T05:42:51.540Z,100992.94
2018-11-22T05:45:26.724Z,100997.84
2018-11-22T05:47:55.246Z,100999.61
2018-11-22T05:50:27.155Z,100996.08
2018-11-22T05:52:56.418Z,101004.30
2018-11-22T05:57:51.773Z,101000.41
2018-11-22T06:00:24.089Z,101009.10
2018-11-22T06:02:52.928Z,101016.41
2018-11-22T06:05:22.271Z,101015.09
2018-11-22T06:07:50.050Z,101008.64
2018-11-22T06:10:19.335Z,101012.50
2018-11-22T06:12:47.514Z,101013.56
2018-11-22T06:15:15.558Z,101021.19
2018-11-22T06:17:43.800Z,101027.44
2018-11-22T06:20:19.628Z,101024.86
2018-11-22T06:22:47.932Z,101030.50
2018-11-22T06:25:17.487Z,101027.02
2018-11-22T06:27:47.433Z,101029.50
2018-11-22T06:30:26.741Z,101025.88
2018-11-22T06:32:55.701Z,101036.00
2018-11-22T06:35:23.665Z,101039.94
2018-11-22T06:37:51.485Z,101036.97
2018-11-22T06:40:19.327Z,101040.63
2018-11-22T06:42:48.393Z,101040.17
2018-11-22T06:45:23.883Z,101034.82
2018-11-22T06:47:52.851Z,101042.72
2018-11-22T06:50:21.637Z,101045.01
2018-11-22T06:52:49.311Z,101046.98
2018-11-22T06:55:18.407Z,101042.14
2018-11-22T06:57:46.004Z,101044.59
2018-11-22T07:00:15.841Z,101047.56
2018-11-22T07:02:43.623Z,101047.47
2018-11-22T07:05:12.055Z,101050.66
2018-11-22T07:07:41.786Z,101048.67
2018-11-22T07:10:09.798Z,101057.58
2018-11-22T07:12:43.588Z,101052.96
2018-11-22T07:15:14.931Z,101057.11
2018-11-22T07:17:44.117Z,101062.59
2018-11-22T07:20:19.473Z,101059.76
2018-11-22T07:22:47.942Z,101066.08
2018-11-22T07:25:18.212Z,101066.00
2018-11-22T07:27:47.243Z,101061.78
2018-11-22T07:30:15.901Z,101060.20
2018-11-22T07:32:43.752Z,101054.34
2018-11-22T07:35:12.339Z,101060.48
2018-11-22T07:37:40.529Z,101070.05
2018-11-22T07:40:17.357Z,101063.92
2018-11-22T07:42:50.586Z,101062.06
2018-11-22T07:45:14.446Z,101069.11
2018-11-22T07:47:42.539Z,101068.36
2018-11-22T07:50:12.206Z,101076.95
2018-11-22T07:52:39.759Z,101075.14
2018-11-22T07:55:09.319Z,101072.16
2018-11-22T07:57:36.886Z,101069.33
2018-11-22T08:00:11.992Z,101076.91
2018-11-22T08:02:40.117Z,101075.78
2018-11-22T08:05:08.542Z,101084.41
2018-11-22T08:07:36.154Z,101078.30
2018-11-22T08:10:05.346Z,101082.22
2018-11-22T08:12:33.023Z,101080.63
2018-11-22T12:16:14.730Z,101056.53
2018-11-22T12:18:42.992Z,101057.37
2018-11-22T12:21:11.264Z,101062.20
2018-11-22T12:23:39.523Z,101065.20
2018-11-22T12:26:07.779Z,101061.84
2018-11-22T12:28:36.117Z,101065.52
2018-11-22T12:31:06.598Z,101057.00
2018-11-22T12:33:39.330Z,101062.17
2018-11-22T12:36:13.415Z,101059.11
2018-11-22T12:38:42.828Z,101062.65
2018-11-22T12:41:11.077Z,101055.81
2018-11-22T12:43:39.375Z,101057.47
2018-11-22T12:46:07.678Z,101053.23
2018-11-22T12:48:35.959Z,101053.29
2018-11-22T12:51:04.355Z,101058.31
2018-11-22T12:53:32.641Z,101052.98
2018-11-22T12:56:00.894Z,101052.95
2018-11-22T12:58:29.171Z,101052.80
2018-11-22T13:00:58.201Z,101056.97
2018-11-22T13:03:26.497Z,101055.47
2018-11-22T13:05:55.896Z,101050.44
2018-11-22T13:08:24.157Z,101058.28
2018-11-22T13:10:52.434Z,101057.45
2018-11-22T13:13:20.668Z,101054.73
2018-11-22T13:15:48.893Z,101064.11
2018-11-22T13:18:17.103Z,101063.56
2018-11-22T13:20:45.458Z,101060.59
2018-11-22T13:23:13.875Z,101059.00
2018-11-22T13:25:42.104Z,101060.03
2018-11-22T13:28:10.414Z,101065.50
2018-11-22T13:30:38.657Z,101058.20
2018-11-22T13:33:06.996Z,101057.57
2018-11-22T13:35:35.337Z,101063.19
2018-11-22T13:38:03.642Z,101063.84
2018-11-22T13:40:32.601Z,101058.91
2018-11-22T13:43:00.954Z,101057.73
2018-11-22T13:45:29.249Z,101047.53
2018-11-22T13:47:58.470Z,101052.52
2018-11-22T13:50:28.324Z,101051.31
2018-11-22T13:53:01.295Z,101055.72
2018-11-22T13:55:30.351Z,101048.02
2018-11-22T13:57:59.805Z,101050.66
2018-11-22T14:00:29.663Z,101057.47
2018-11-22T14:02:59.791Z,101052.16
2018-11-22T14:05:28.238Z,101065.48
2018-11-22T14:07:57.320Z,101059.32
2018-11-22T14:10:25.648Z,101052.81
2018-11-22T14:12:54.022Z,101059.21
2018-11-22T14:15:26.505Z,101057.66
2018-11-22T14:17:56.315Z,101060.14
2018-11-22T14:20:29.145Z,101060.95
2018-11-22T14:22:57.455Z,101067.48
2018-11-22T14:25:25.704Z,101058.83
2018-11-22T14:27:53.949Z,101065.83
2018-11-22T14:30:30.499Z,101059.00
2018-11-22T14:32:58.724Z,101061.15
2018-11-22T14:35:27.180Z,101065.83
2018-11-22T14:38:00.114Z,101061.91
2018-11-22T14:40:29.797Z,101059.13
2018-11-22T14:42:58.076Z,101057.77
2018-11-22T14:45:26.983Z,101062.06
2018-11-22T14:47:56.538Z,101062.88
2018-11-22T14:50:32.715Z,101062.09
2018-11-22T14:53:13.012Z,101058.09
2018-11-22T14:55:41.248Z,101066.09
2018-11-22T14:58:09.921Z,101061.09
2018-11-22T15:00:38.201Z,101061.94
2018-11-22T15:03:06.594Z,101062.39
2018-11-22T15:05:35.122Z,101065.94
2018-11-22T15:08:03.428Z,101066.36
2018-11-22T15:10:31.662Z,101063.85
2018-11-22T15:12:59.932Z,101062.52
2018-11-22T15:15:28.863Z,101062.00
2018-11-22T15:17:57.126Z,101063.85
2018-11-22T15:20:25.412Z,101061.27
2018-11-22T15:22:54.206Z,101065.47
2018-11-22T15:25:23.905Z,101064.37
2018-11-22T15:27:52.294Z,101065.68
2018-11-22T15:30:24.016Z,101057.43
2018-11-22T15:32:52.278Z,101066.56
2018-11-22T15:35:21.806Z,101061.34
2018-11-22T15:37:50.484Z,101062.92
2018-11-22T15:40:20.177Z,101061.31
2018-11-22T15:42:49.786Z,101063.91
2018-11-22T15:45:19.520Z,101059.12
2018-11-22T15:47:48.080Z,101063.70
2018-11-22T15:50:20.688Z,101062.52
2018-11-22T15:52:49.039Z,101069.95
2018-11-22T15:55:20.991Z,101078.34
2018-11-22T15:57:47.318Z,101078.80
2018-11-22T16:00:24.088Z,101069.72
2018-11-22T16:02:53.000Z,101070.61
2018-11-22T16:05:21.803Z,101075.50
2018-11-22T16:07:50.076Z,101070.08
2018-11-22T16:10:26.312Z,101071.25
2018-11-22T16:12:52.475Z,101069.92
2018-11-22T16:15:31.513Z,101075.13
2018-11-22T16:17:59.762Z,101074.45
2018-11-22T16:20:28.024Z,101081.08
2018-11-22T16:22:56.355Z,101082.20
2018-11-22T16:25:24.593Z,101085.64
2018-11-22T16:27:52.903Z,101089.63
2018-11-22T16:30:25.750Z,101085.92
2018-11-22T16:32:54.038Z,101079.94
2018-11-22T16:35:23.013Z,101088.10
2018-11-22T16:37:51.294Z,101080.22
2018-11-22T16:40:28.111Z,101084.06
2018-11-22T16:42:57.532Z,101083.12
2018-11-22T16:45:29.918Z,101084.70
2018-11-22T16:47:59.598Z,101082.53
2018-11-22T16:50:28.949Z,101083.63
2018-11-22T16:52:57.176Z,101083.66
2018-11-22T16:55:26.026Z,101079.50
2018-11-22T16:57:55.125Z,101086.94
2018-11-22T17:00:25.746Z,101083.70
2018-11-22T17:02:55.218Z,101083.05
2018-11-22T17:05:23.929Z,101084.02
2018-11-22T17:07:52.201Z,101084.08
2018-11-22T17:10:21.971Z,101084.98
2018-11-22T17:12:51.562Z,101086.48
2018-11-22T17:15:21.057Z,101086.52
2018-11-22T17:17:49.933Z,101084.98
2018-11-22T17:20:19.246Z,101093.31
2018-11-22T17:22:51.711Z,101091.22
2018-11-22T17:25:21.369Z,101090.11
2018-11-22T17:27:51.149Z,101085.72
2018-11-22T17:30:21.216Z,101086.77
2018-11-22T17:32:50.545Z,101086.89
2018-11-22T17:35:20.371Z,101087.38
2018-11-22T17:37:48.757Z,101083.70
2018-11-22T17:40:20.790Z,101081.31
2018-11-22T17:42:49.123Z,101081.56
2018-11-22T17:45:25.751Z,101090.16
2018-11-22T17:47:54.028Z,101085.84
2018-11-22T17:50:24.695Z,101082.97
2018-11-22T17:52:52.940Z,101083.55
2018-11-22T17:55:22.519Z,101084.25
2018-11-22T17:57:50.801Z,101070.97
2018-11-22T18:00:21.082Z,101077.20
2018-11-22T18:02:50.513Z,101074.33
2018-11-22T18:05:18.810Z,101072.83
2018-11-22T18:07:47.013Z,101070.89
2018-11-22T18:10:16.911Z,101066.80
2018-11-22T18:12:46.014Z,101073.03
2018-11-22T18:15:15.615Z,101062.89
2018-11-22T18:17:43.914Z,101069.08
2018-11-22T18:20:16.493Z,101066.60
2018-11-22T18:22:45.172Z,101074.24
2018-11-22T18:25:14.761Z,101063.73
2018-11-22T18:27:42.985Z,101062.33
2018-11-22T18:30:16.215Z,101073.03
2018-11-22T18:32:45.976Z,101063.53
2018-11-22T18:35:14.689Z,101063.05
2018-11-22T18:37:42.983Z,101062.77
2018-11-22T18:40:16.675Z,101058.41
2018-11-22T18:42:45.851Z,101067.50
2018-11-22T18:45:15.542Z,101062.69
2018-11-22T18:47:44.932Z,101069.79
2018-11-22T18:50:17.239Z,101060.63
2018-11-22T18:52:46.732Z,101060.06
2018-11-22T18:55:15.094Z,101060.95
2018-11-22T18:57:43.886Z,101061.92
2018-11-22T19:00:19.551Z,101064.39
2018-11-22T19:02:47.847Z,101072.88
2018-11-22T19:05:16.773Z,101068.02
2018-11-22T19:07:47.067Z,101069.14
2018-11-22T19:10:17.819Z,101065.42
2018-11-22T19:12:47.494Z,101063.38
2018-11-22T19:15:17.454Z,101061.76
2018-11-22T19:17:46.042Z,101067.34
2018-11-22T19:20:20.034Z,101068.55
2018-11-22T19:22:49.026Z,101066.16
2018-11-22T19:25:17.972Z,101068.55
2018-11-22T19:27:47.582Z,101073.31
2018-11-22T19:30:21.659Z,101074.16
2018-11-22T19:32:51.101Z,101065.92
2018-11-22T19:35:21.015Z,101063.13
2018-11-22T19:37:49.915Z,101068.30
2018-11-22T19:40:22.896Z,101070.60
2018-11-22T19:42:52.606Z,101068.63
2018-11-22T19:45:22.404Z,101066.31
2018-11-22T19:47:50.823Z,101063.70
2018-11-22T19:50:20.540Z,101067.37
2018-11-22T19:52:49.588Z,101070.77
2018-11-22T19:55:19.214Z,101073.72
2018-11-22T19:57:49.419Z,101064.46
2018-11-22T20:00:18.557Z,101070.37
2018-11-22T20:02:47.314Z,101072.83
2018-11-22T20:05:16.668Z,101080.10
2018-11-22T20:07:46.480Z,101080.27
2018-11-22T20:10:20.323Z,101080.02
2018-11-22T20:12:49.689Z,101088.83
2018-11-22T20:15:18.857Z,101082.77
2018-11-22T20:17:48.134Z,101087.17
2018-11-22T20:20:20.331Z,101085.44
2018-11-22T20:22:53.037Z,101088.23
2018-11-22T20:25:21.280Z,101092.75
2018-11-22T20:27:51.121Z,101090.29
2018-11-22T20:30:24.136Z,101087.78
2018-11-22T20:32:54.566Z,101088.83
2018-11-22T20:35:23.100Z,101094.41
2018-11-22T20:37:52.113Z,101095.66
2018-11-22T20:40:24.532Z,101098.37
2018-11-22T20:42:53.096Z,101087.28
2018-11-22T20:45:23.231Z,101095.03
2018-11-22T20:47:53.535Z,101088.17
2018-11-22T20:50:23.110Z,101089.04
2018-11-22T20:52:52.200Z,101086.77
2018-11-22T20:55:23.982Z,101095.18
2018-11-22T20:57:53.713Z,101090.70
2018-11-22T21:00:23.317Z,101092.47
2018-11-22T21:02:51.570Z,101096.62
2018-11-22T21:05:20.550Z,101099.86
2018-11-22T21:07:48.930Z,101098.32
2018-11-22T21:10:18.796Z,101100.73
2018-11-22T21:12:47.078Z,101100.23
2018-11-22T21:15:25.797Z,101105.94
2018-11-22T21:17:55.851Z,101106.21
2018-11-22T21:20:28.214Z,101105.95
2018-11-22T21:22:57.043Z,101101.52
2018-11-22T21:25:25.920Z,101103.45
2018-11-22T21:27:55.025Z,101100.47
2018-11-22T21:30:26.259Z,101104.17
2018-11-22T21:32:54.858Z,101103.28
2018-11-22T21:35:23.195Z,101102.47
2018-11-22T21:37:52.798Z,101108.98
2018-11-22T21:40:21.626Z,101109.72
2018-11-22T21:42:49.898Z,101107.22
2018-11-22T21:45:19.614Z,101111.64
2018-11-22T21:47:47.846Z,101113.42
2018-11-22T21:50:17.569Z,101116.13
2018-11-22T21:52:45.757Z,101112.93
2018-11-22T21:55:16.130Z,101111.81
2018-11-22T21:57:45.367Z,101107.70
2018-11-22T22:00:24.997Z,101107.08
2018-11-22T22:02:57.255Z,101109.99
2018-11-22T22:05:25.526Z,101112.95
2018-11-22T22:07:53.761Z,101108.30
2018-11-22T22:10:21.983Z,101106.66
2018-11-22T22:12:50.383Z,101110.80
2018-11-22T22:15:20.170Z,101107.77
2018-11-22T22:17:48.711Z,101106.05
2018-11-22T22:20:19.247Z,101111.86
2018-11-22T22:22:47.522Z,101112.88
2018-11-22T22:25:16.990Z,101109.46
2018-11-22T22:27:45.842Z,101116.13
2018-11-22T22:30:18.694Z,101112.61
2018-11-22T22:32:47.839Z,101115.52
2018-11-22T22:35:16.014Z,101112.72
2018-11-22T22:37:44.298Z,101116.41
2018-11-22T22:40:16.748Z,101115.00
2018-11-22T22:42:45.858Z,101119.25
2018-11-22T22:45:14.989Z,101112.45
2018-11-22T22:47:43.979Z,101110.44
2018-11-22T22:50:15.590Z,101108.83
2018-11-22T22:52:44.416Z,101108.14
2018-11-22T22:55:13.062Z,101110.53
2018-11-22T22:57:41.589Z,101110.81
2018-11-22T23:00:23.614Z,101107.77
2018-11-22T23:02:53.236Z,101101.05
2018-11-22T23:05:21.983Z,101105.67
2018-11-22T23:07:50.316Z,101104.13
2018-11-22T23:10:19.258Z,101105.09
2018-11-22T23:12:47.455Z,101098.27
2018-11-22T23:15:16.513Z,101102.97
2018-11-22T23:17:44.745Z,101103.98
2018-11-22T23:20:16.105Z,101093.27
2018-11-22T23:22:44.975Z,101095.66
2018-11-22T23:25:13.891Z,101098.13
2018-11-22T23:27:42.119Z,101096.72
2018-11-22T23:30:14.047Z,101092.62
2018-11-22T23:32:43.259Z,101087.67
2018-11-22T23:35:11.441Z,101095.56
2018-11-22T23:37:39.813Z,101097.33
2018-11-22T23:40:11.380Z,101093.05
2018-11-22T23:42:40.415Z,101086.59
2018-11-22T23:45:10.563Z,101093.47
2018-11-22T23:47:39.386Z,101095.28
2018-11-22T23:50:11.875Z,101097.42
2018-11-22T23:52:40.547Z,101100.61
2018-11-22T23:55:08.982Z,101095.19
2018-11-22T23:57:37.397Z,101088.94
